Time;durP1;ratioP1;P1;durP2;ratioP2;P2;SDS_P1;SDS_P2;PMS_P1;PMS_P2;Temp;Humidity;BMP_temperature;BMP_pressure;BME280_temperature;BME280_humidity;BME280_pressure;Samples;Min_cycle;Max_cycle;Signal;HPM_P1;HPM_P2
2022/02/26 00:01:17;;;;;;;5.20;1.90;;;7.40;50.00;;;;;;4992636;28;20030;-65
2022/02/26 00:03:42;;;;;;;7.80;2.30;;;7.30;50.80;;;;;;4974971;28;20030;-64
2022/02/26 00:06:08;;;;;;;6.93;2.40;;;7.30;50.60;;;;;;4975011;28;20358;-66
2022/02/26 00:08:34;;;;;;;6.88;2.33;;;7.30;50.80;;;;;;4992675;28;20031;-65
2022/02/26 00:11:00;;;;;;;5.32;2.25;;;7.30;50.80;;;;;;4992606;28;20018;-65
2022/02/26 00:13:26;;;;;;;8.38;2.05;;;7.30;50.70;;;;;;4992867;28;20030;-67
2022/02/26 00:15:52;;;;;;;5.55;2.05;;;7.30;51.00;;;;;;4992699;28;20027;-67
2022/02/26 00:18:18;;;;;;;7.65;2.30;;;7.20;51.20;;;;;;4992261;28;20365;-67
2022/02/26 00:20:43;;;;;;;8.27;2.38;;;7.20;51.40;;;;;;4992882;28;20117;-67
2022/02/26 00:23:09;;;;;;;6.88;2.17;;;7.20;51.50;;;;;;4992586;28;20432;-65
2022/02/26 00:25:35;;;;;;;5.90;2.05;;;7.10;51.50;;;;;;4992940;28;20041;-66
2022/02/26 00:28:00;;;;;;;5.97;2.30;;;7.10;51.70;;;;;;4992169;28;20031;-64
2022/02/26 00:30:26;;;;;;;8.27;2.10;;;7.10;52.10;;;;;;4992430;28;20457;-66
2022/02/26 00:32:52;;;;;;;10.18;2.15;;;7.10;52.20;;;;;;4992593;28;20057;-66
2022/02/26 00:35:17;;;;;;;9.27;2.78;;;7.10;51.90;;;;;;4992008;28;20035;-66
2022/02/26 00:37:43;;;;;;;6.00;2.17;;;7.10;51.90;;;;;;4992434;28;20046;-67
2022/02/26 00:40:09;;;;;;;5.15;1.98;;;7.20;51.80;;;;;;4992265;28;20084;-67
2022/02/26 00:42:35;;;;;;;6.50;2.03;;;7.20;52.00;;;;;;4992545;28;20065;-66
2022/02/26 00:45:01;;;;;;;7.28;2.25;;;7.20;51.70;;;;;;4992024;28;20018;-67
2022/02/26 00:47:27;;;;;;;6.03;2.17;;;7.20;52.10;;;;;;4975406;28;20037;-67
2022/02/26 00:49:53;;;;;;;8.32;2.03;;;7.20;52.40;;;;;;4992409;28;20067;-65
2022/02/26 00:52:22;;;;;;;7.28;2.08;;;7.10;52.60;;;;;;4974535;28;20050;-67
2022/02/26 00:54:49;;;;;;;7.03;2.78;;;7.00;52.90;;;;;;4992669;28;20019;-66
2022/02/26 00:57:15;;;;;;;5.55;2.00;;;7.10;52.70;;;;;;4991860;28;20057;-67
2022/02/26 00:59:41;;;;;;;7.10;1.92;;;7.10;53.00;;;;;;4992856;28;20038;-66
2022/02/26 01:02:08;;;;;;;6.50;2.42;;;7.00;53.00;;;;;;4991820;28;20045;-64
2022/02/26 01:04:34;;;;;;;9.55;2.33;;;7.00;53.30;;;;;;4992794;28;20030;-67
2022/02/26 01:07:00;;;;;;;5.85;2.05;;;7.00;53.30;;;;;;4974468;28;20109;-66
2022/02/26 01:09:27;;;;;;;6.50;2.30;;;7.00;53.20;;;;;;4995973;28;20042;-66
2022/02/26 01:11:53;;;;;;;6.57;2.47;;;7.00;54.30;;;;;;4996334;28;20046;-66
2022/02/26 01:14:19;;;;;;;8.73;2.10;;;7.00;53.70;;;;;;4996148;28;20319;-67
2022/02/26 01:16:45;;;;;;;9.88;2.10;;;7.00;53.50;;;;;;4995711;28;20086;-65
2022/02/26 01:19:11;;;;;;;8.07;2.55;;;7.00;53.50;;;;;;4995709;28;20034;-67
2022/02/26 01:21:37;;;;;;;8.43;2.30;;;7.10;53.50;;;;;;4995933;28;20488;-65
2022/02/26 01:24:03;;;;;;;8.18;2.38;;;7.00;53.50;;;;;;4995484;28;20029;-64
2022/02/26 01:26:29;;;;;;;5.70;1.98;;;7.00;53.90;;;;;;4995693;28;20034;-66
2022/02/26 01:28:55;;;;;;;8.10;2.30;;;7.00;54.10;;;;;;4978560;28;20038;-66
2022/02/26 01:31:21;;;;;;;9.15;2.30;;;6.90;54.90;;;;;;4995362;28;20057;-66
2022/02/26 01:33:47;;;;;;;6.93;2.67;;;6.90;54.50;;;;;;4996242;28;20496;-65
2022/02/26 01:36:13;;;;;;;6.47;2.38;;;6.90;55.00;;;;;;4995079;28;20030;-64
2022/02/26 01:38:39;;;;;;;9.20;3.28;;;6.90;54.80;;;;;;4995651;28;20030;-64
2022/02/26 01:41:06;;;;;;;9.25;2.63;;;7.00;54.80;;;;;;4995162;28;20034;-65
2022/02/26 01:43:33;;;;;;;9.48;2.33;;;7.00;54.90;;;;;;4995610;28;20026;-66
2022/02/26 01:46:00;;;;;;;8.00;2.58;;;7.00;54.90;;;;;;4978376;28;20022;-66
2022/02/26 01:48:26;;;;;;;8.98;2.60;;;7.00;55.20;;;;;;4994985;28;20018;-66
2022/02/26 01:50:52;;;;;;;5.75;2.45;;;7.00;55.50;;;;;;4995461;28;20037;-66
2022/02/26 01:53:18;;;;;;;7.60;2.53;;;7.00;55.50;;;;;;4977846;28;20454;-67
2022/02/26 01:55:44;;;;;;;7.93;2.58;;;6.90;55.90;;;;;;4995327;28;20113;-64
2022/02/26 01:58:10;;;;;;;8.95;2.78;;;6.90;56.00;;;;;;4995187;28;20037;-68
2022/02/26 02:00:36;;;;;;;6.47;2.20;;;6.90;55.90;;;;;;4978091;28;20034;-66
2022/02/26 02:03:01;;;;;;;6.13;2.33;;;6.90;55.80;;;;;;4995532;28;20022;-67
2022/02/26 02:05:30;;;;;;;5.93;2.28;;;6.90;55.80;;;;;;4977253;28;20113;-66
2022/02/26 02:07:57;;;;;;;7.22;2.22;;;6.90;55.80;;;;;;4978196;28;20386;-67
2022/02/26 02:10:23;;;;;;;7.28;2.90;;;6.80;56.00;;;;;;4977376;28;20497;-67
2022/02/26 02:12:49;;;;;;;8.73;2.78;;;6.80;56.00;;;;;;4995156;28;20027;-66
2022/02/26 02:15:15;;;;;;;10.98;2.63;;;6.80;56.00;;;;;;4994834;28;20034;-64
2022/02/26 02:17:42;;;;;;;6.30;2.20;;;6.80;56.50;;;;;;4994965;28;20045;-71
2022/02/26 02:20:08;;;;;;;5.38;2.38;;;6.70;56.10;;;;;;4977027;28;20045;-69
2022/02/26 02:22:34;;;;;;;7.80;2.60;;;6.80;55.90;;;;;;4994796;28;20169;-69
2022/02/26 02:25:02;;;;;;;6.35;2.45;;;6.80;55.80;;;;;;4994865;28;20532;-69
2022/02/26 02:27:28;;;;;;;7.00;2.70;;;6.80;56.30;;;;;;4994189;28;20042;-68
2022/02/26 02:29:54;;;;;;;8.23;2.75;;;6.80;56.20;;;;;;4994287;28;20642;-68
2022/02/26 02:32:19;;;;;;;9.15;2.40;;;6.80;56.20;;;;;;4994277;28;20508;-70
2022/02/26 02:34:45;;;;;;;10.30;3.20;;;6.80;56.50;;;;;;4995288;28;20054;-69
2022/02/26 02:37:11;;;;;;;8.13;2.65;;;6.80;56.10;;;;;;4960746;28;20041;-70
2022/02/26 02:39:41;;;;;;;9.00;2.65;;;6.80;56.00;;;;;;4994794;28;20026;-70
2022/02/26 02:42:07;;;;;;;6.38;2.42;;;6.80;56.60;;;;;;4994372;28;20030;-70
2022/02/26 02:44:33;;;;;;;10.65;2.70;;;6.80;56.70;;;;;;4994860;28;20026;-70
2022/02/26 02:46:59;;;;;;;7.43;2.70;;;6.80;56.70;;;;;;4976944;28;20026;-70
2022/02/26 02:49:24;;;;;;;12.77;2.75;;;6.80;56.60;;;;;;4976543;28;20045;-70
2022/02/26 02:51:50;;;;;;;8.82;3.22;;;6.90;56.30;;;;;;4977001;28;20026;-69
2022/02/26 02:54:16;;;;;;;11.70;2.67;;;7.00;56.30;;;;;;4976132;28;20489;-70
2022/02/26 02:56:42;;;;;;;7.75;2.50;;;7.00;56.50;;;;;;4994117;28;20069;-69
2022/02/26 02:59:09;;;;;;;6.97;3.00;;;6.90;56.50;;;;;;4994014;28;20482;-68
2022/02/26 03:01:36;;;;;;;8.15;2.72;;;7.00;56.50;;;;;;4994144;28;20054;-69
2022/02/26 03:04:20;;;;;;;5.65;2.70;;;7.00;56.50;;;;;;4994165;28;20033;-72
2022/02/26 03:06:46;;;;;;;8.93;2.88;;;6.90;56.70;;;;;;4993687;28;20031;-68
2022/02/26 03:09:12;;;;;;;11.30;2.97;;;7.00;56.70;;;;;;4993489;28;20030;-69
2022/02/26 03:11:37;;;;;;;10.68;3.13;;;7.00;56.50;;;;;;4994118;28;20054;-70
2022/02/26 03:14:03;;;;;;;6.80;2.80;;;6.90;56.70;;;;;;4993838;28;20030;-70
2022/02/26 03:16:28;;;;;;;7.53;3.05;;;6.90;56.80;;;;;;4993608;28;20132;-70
2022/02/26 03:18:54;;;;;;;8.15;3.05;;;6.90;56.70;;;;;;4976485;28;20026;-70
2022/02/26 03:21:20;;;;;;;7.93;2.60;;;7.00;56.60;;;;;;4993472;28;20326;-68
2022/02/26 03:23:46;;;;;;;9.82;3.00;;;6.90;56.90;;;;;;4993908;28;20030;-70
2022/02/26 03:26:11;;;;;;;6.60;3.20;;;6.90;57.10;;;;;;4975798;28;20066;-69
2022/02/26 03:28:37;;;;;;;8.82;3.20;;;6.90;56.90;;;;;;4976215;28;20030;-69
2022/02/26 03:31:03;;;;;;;6.47;2.50;;;7.00;56.70;;;;;;4992267;28;20049;-69
2022/02/26 03:33:28;;;;;;;9.45;3.17;;;7.10;56.60;;;;;;4974919;28;20704;-69
2022/02/26 03:35:54;;;;;;;9.43;3.15;;;7.20;56.50;;;;;;4993197;28;20081;-69
2022/02/26 03:38:20;;;;;;;8.75;3.05;;;7.20;56.50;;;;;;4992392;28;20030;-69
2022/02/26 03:40:46;;;;;;;9.65;3.38;;;7.20;56.30;;;;;;4992742;28;20034;-70
2022/02/26 03:43:30;;;;;;;7.60;2.88;;;7.20;56.50;;;;;;4993425;28;20033;-69
2022/02/26 03:45:56;;;;;;;7.07;2.95;;;7.20;56.60;;;;;;4992430;28;20022;-70
2022/02/26 03:48:21;;;;;;;8.75;3.40;;;7.20;56.50;;;;;;4975432;28;20497;-69
2022/02/26 03:50:47;;;;;;;8.95;3.00;;;7.20;56.50;;;;;;4992775;28;20030;-69
2022/02/26 03:53:13;;;;;;;5.10;2.70;;;7.20;56.60;;;;;;4992262;28;20027;-71
2022/02/26 03:55:38;;;;;;;7.85;2.97;;;7.20;56.70;;;;;;4992713;28;20041;-67
2022/02/26 03:58:04;;;;;;;10.60;2.78;;;7.20;57.00;;;;;;4993427;28;20512;-68
2022/02/26 04:00:30;;;;;;;9.88;2.78;;;7.20;56.90;;;;;;4992788;28;20299;-68
2022/02/26 04:02:55;;;;;;;10.85;3.67;;;7.20;56.90;;;;;;4975620;28;20026;-69
2022/02/26 04:05:21;;;;;;;10.23;3.38;;;7.10;57.10;;;;;;4992375;28;20026;-69
2022/02/26 04:07:47;;;;;;;9.00;3.03;;;7.00;57.30;;;;;;4992851;28;20105;-69
2022/02/26 04:10:13;;;;;;;11.60;3.55;;;7.00;57.30;;;;;;4992094;28;20035;-68
2022/02/26 04:12:39;;;;;;;9.23;3.47;;;6.90;57.70;;;;;;4992155;28;20034;-68
2022/02/26 04:15:05;;;;;;;11.07;3.28;;;6.90;57.90;;;;;;4992408;28;20026;-68
2022/02/26 04:17:31;;;;;;;10.10;3.65;;;6.90;58.00;;;;;;4992239;28;20218;-69
2022/02/26 04:19:57;;;;;;;8.73;2.92;;;7.00;57.90;;;;;;4992770;28;20027;-67
2022/02/26 04:22:22;;;;;;;8.30;3.05;;;6.90;57.80;;;;;;4991831;28;20029;-68
2022/02/26 04:24:48;;;;;;;8.57;2.85;;;7.00;57.70;;;;;;4992529;28;20034;-69
2022/02/26 04:27:14;;;;;;;8.68;3.03;;;7.00;57.60;;;;;;4974759;28;20117;-68
2022/02/26 04:29:39;;;;;;;12.35;3.70;;;7.00;57.80;;;;;;4991060;28;20030;-68
2022/02/26 04:32:06;;;;;;;8.15;3.30;;;7.00;58.00;;;;;;4992402;28;20047;-68
2022/02/26 04:34:31;;;;;;;11.63;3.50;;;7.00;58.10;;;;;;4992680;28;20110;-69
2022/02/26 04:36:57;;;;;;;8.32;3.15;;;7.00;58.00;;;;;;4975694;28;20109;-69
2022/02/26 04:39:22;;;;;;;15.10;3.58;;;7.00;58.20;;;;;;4974549;28;20034;-67
2022/02/26 04:41:48;;;;;;;7.53;3.72;;;7.00;58.20;;;;;;4992024;28;20026;-68
2022/02/26 04:44:14;;;;;;;10.55;3.85;;;7.00;58.20;;;;;;4991474;28;20030;-67
2022/02/26 04:46:40;;;;;;;11.18;3.40;;;7.00;58.30;;;;;;4992073;28;20102;-68
2022/02/26 04:49:05;;;;;;;9.48;3.47;;;7.00;58.80;;;;;;4992395;28;20056;-69
2022/02/26 04:51:31;;;;;;;9.20;3.95;;;6.90;59.00;;;;;;4991786;28;20101;-69
2022/02/26 04:53:57;;;;;;;10.55;3.75;;;6.90;58.80;;;;;;4992541;28;20022;-68
2022/02/26 04:56:22;;;;;;;9.80;3.65;;;7.00;59.10;;;;;;4974758;28;20496;-68
2022/02/26 04:58:48;;;;;;;12.82;4.25;;;6.90;59.20;;;;;;4992213;28;20026;-68
2022/02/26 05:01:14;;;;;;;10.98;4.35;;;6.90;59.30;;;;;;4992017;28;20037;-67
2022/02/26 05:03:41;;;;;;;10.10;4.43;;;6.80;59.70;;;;;;4991976;28;20037;-70
2022/02/26 05:06:06;;;;;;;10.55;4.38;;;6.80;59.70;;;;;;4992248;28;20025;-69
2022/02/26 05:08:32;;;;;;;8.85;3.97;;;6.80;59.70;;;;;;4991543;28;20334;-68
2022/02/26 05:10:58;;;;;;;12.25;3.90;;;6.80;59.60;;;;;;4992233;28;20101;-69
2022/02/26 05:13:25;;;;;;;8.32;3.80;;;6.80;59.70;;;;;;4974329;28;20041;-71
2022/02/26 05:15:51;;;;;;;12.90;4.28;;;6.80;59.90;;;;;;4992502;28;20109;-69
2022/02/26 05:18:16;;;;;;;13.65;4.80;;;6.70;59.90;;;;;;4991826;28;20444;-67
2022/02/26 05:20:42;;;;;;;9.77;4.28;;;6.70;59.90;;;;;;4992347;28;20030;-68
2022/02/26 05:23:08;;;;;;;11.88;5.03;;;6.70;60.00;;;;;;4992181;28;20030;-69
2022/02/26 05:25:34;;;;;;;12.73;4.65;;;6.80;60.20;;;;;;4974056;28;20030;-69
2022/02/26 05:27:59;;;;;;;9.75;4.60;;;6.70;61.00;;;;;;4991932;28;20053;-68
2022/02/26 05:30:25;;;;;;;9.30;4.25;;;6.60;61.40;;;;;;4991346;28;20097;-68
2022/02/26 05:32:51;;;;;;;12.10;4.55;;;6.60;61.60;;;;;;4991502;28;20052;-68
2022/02/26 05:35:17;;;;;;;25.13;4.90;;;6.50;61.60;;;;;;4974217;28;20037;-67
2022/02/26 05:37:43;;;;;;;13.85;5.10;;;6.50;61.90;;;;;;4992227;28;20026;-68
2022/02/26 05:40:09;;;;;;;10.93;4.43;;;6.50;62.10;;;;;;4991516;28;20397;-70
2022/02/26 05:42:35;;;;;;;16.63;4.30;;;6.60;61.80;;;;;;4991416;28;20132;-69
2022/02/26 05:45:00;;;;;;;8.43;3.72;;;6.70;61.50;;;;;;4992195;28;20098;-68
2022/02/26 05:47:26;;;;;;;12.52;4.22;;;6.60;61.50;;;;;;4990975;28;20035;-69
2022/02/26 05:49:52;;;;;;;11.52;4.22;;;6.60;61.40;;;;;;4991551;28;20093;-69
2022/02/26 05:52:18;;;;;;;6.30;3.83;;;6.70;61.60;;;;;;4991666;28;20041;-68
2022/02/26 05:54:44;;;;;;;7.85;3.60;;;6.70;61.40;;;;;;4976944;28;20142;-68
2022/02/26 05:57:10;;;;;;;9.73;3.80;;;6.70;61.10;;;;;;4978245;28;20483;-69
2022/02/26 05:59:35;;;;;;;9.77;4.15;;;6.80;60.90;;;;;;4994465;28;20061;-68
2022/02/26 06:02:01;;;;;;;9.30;3.80;;;6.90;60.70;;;;;;4995163;28;20026;-70
2022/02/26 06:04:46;;;;;;;9.45;3.85;;;7.00;60.40;;;;;;4994644;28;20130;-69
2022/02/26 06:07:12;;;;;;;9.75;4.00;;;7.10;60.20;;;;;;4995223;28;20026;-66
2022/02/26 06:09:37;;;;;;;12.70;4.45;;;7.10;60.00;;;;;;4994395;28;20045;-66
2022/02/26 06:12:04;;;;;;;9.95;4.13;;;7.10;60.30;;;;;;4994911;28;20479;-66
2022/02/26 06:14:29;;;;;;;8.10;4.32;;;7.00;60.80;;;;;;4994358;28;20045;-67
2022/02/26 06:16:55;;;;;;;11.43;4.72;;;7.00;60.80;;;;;;4994656;28;20446;-66
2022/02/26 06:19:21;;;;;;;11.30;4.35;;;7.10;60.80;;;;;;4976491;28;20062;-66
2022/02/26 06:21:48;;;;;;;12.50;4.65;;;7.10;60.80;;;;;;4977431;28;20074;-67
2022/02/26 06:24:14;;;;;;;13.30;5.70;;;7.10;60.80;;;;;;4994667;28;20039;-67
2022/02/26 06:26:40;;;;;;;8.68;4.35;;;7.20;61.50;;;;;;4992776;28;20058;-65
2022/02/26 06:29:06;;;;;;;11.00;4.53;;;7.20;61.00;;;;;;4994356;28;20034;-63
2022/02/26 06:31:31;;;;;;;12.05;5.28;;;7.20;61.00;;;;;;4994035;28;20026;-64
2022/02/26 06:33:57;;;;;;;12.15;4.82;;;7.20;61.30;;;;;;4977127;28;20110;-64
2022/02/26 06:36:23;;;;;;;11.18;4.40;;;7.20;61.60;;;;;;4994026;28;20113;-63
2022/02/26 06:38:48;;;;;;;8.75;4.25;;;7.20;61.60;;;;;;4994507;28;20018;-63
2022/02/26 06:41:14;;;;;;;12.52;5.10;;;7.30;61.40;;;;;;4976989;28;20383;-67
2022/02/26 06:43:40;;;;;;;10.98;4.97;;;7.50;61.20;;;;;;4975823;28;20026;-70
2022/02/26 06:46:07;;;;;;;19.92;5.10;;;7.60;60.70;;;;;;4994709;28;20065;-72
2022/02/26 06:48:33;;;;;;;13.35;4.45;;;7.70;60.40;;;;;;4994148;28;20027;-65
2022/02/26 06:50:59;;;;;;;10.07;4.30;;;7.80;60.00;;;;;;4993109;28;20034;-71
2022/02/26 06:53:24;;;;;;;9.70;4.03;;;7.80;59.90;;;;;;4993485;28;20030;-69
2022/02/26 06:55:50;;;;;;;23.70;5.07;;;8.00;60.30;;;;;;4994295;28;20038;-70
2022/02/26 06:58:16;;;;;;;16.58;4.75;;;8.00;59.30;;;;;;4994532;28;20397;-70
2022/02/26 07:00:41;;;;;;;9.23;4.40;;;8.00;59.00;;;;;;4993609;28;20434;-69
2022/02/26 07:03:07;;;;;;;12.07;4.43;;;7.90;59.10;;;;;;4993995;28;20106;-70
2022/02/26 07:05:33;;;;;;;10.75;4.20;;;7.90;59.20;;;;;;4975432;28;20053;-70
2022/02/26 07:07:58;;;;;;;8.88;3.78;;;8.00;59.20;;;;;;4993962;28;20033;-70
2022/02/26 07:10:24;;;;;;;7.47;3.90;;;8.10;58.80;;;;;;4993317;28;20132;-68
2022/02/26 07:12:50;;;;;;;8.10;4.13;;;8.20;58.80;;;;;;4993751;28;20031;-70
2022/02/26 07:15:16;;;;;;;10.35;4.18;;;8.30;58.50;;;;;;4994164;28;20105;-70
2022/02/26 07:17:41;;;;;;;9.02;3.70;;;8.50;58.20;;;;;;4975708;28;20081;-70
2022/02/26 07:20:08;;;;;;;8.23;3.97;;;8.50;57.60;;;;;;4976187;28;20029;-70
2022/02/26 07:22:34;;;;;;;8.77;3.38;;;8.40;57.90;;;;;;4975844;28;20030;-71
2022/02/26 07:25:00;;;;;;;14.30;5.00;;;8.40;57.90;;;;;;4976370;28;20125;-70
2022/02/26 07:27:25;;;;;;;12.15;4.00;;;8.50;57.80;;;;;;4993554;28;20042;-69
2022/02/26 07:29:51;;;;;;;15.20;4.75;;;8.80;57.60;;;;;;4993237;28;20034;-70
2022/02/26 07:32:17;;;;;;;9.50;5.13;;;9.30;56.70;;;;;;4993397;28;20050;-73
2022/02/26 07:34:42;;;;;;;8.70;3.58;;;11.10;56.40;;;;;;4993180;28;20080;-71
2022/02/26 07:37:08;;;;;;;15.38;5.35;;;14.10;51.70;;;;;;4993707;28;20058;-70
2022/02/26 07:39:34;;;;;;;17.05;5.38;;;15.90;45.40;;;;;;4975312;28;20116;-69
2022/02/26 07:41:59;;;;;;;9.32;3.67;;;17.40;42.60;;;;;;4993163;28;20022;-68
2022/02/26 07:44:25;;;;;;;10.27;3.70;;;17.70;39.50;;;;;;4993330;28;20037;-67
2022/02/26 07:46:51;;;;;;;8.93;3.58;;;16.20;38.30;;;;;;4975497;28;20121;-70
2022/02/26 07:49:16;;;;;;;16.98;3.92;;;14.90;40.50;;;;;;4976039;28;20037;-72
2022/02/26 07:51:42;;;;;;;16.00;4.30;;;13.90;42.70;;;;;;4992525;28;20377;-70
2022/02/26 07:54:08;;;;;;;10.07;3.53;;;13.40;43.20;;;;;;4992920;28;20034;-70
2022/02/26 07:56:33;;;;;;;8.10;3.40;;;14.10;44.00;;;;;;4992944;28;20032;-69
2022/02/26 07:58:59;;;;;;;9.75;3.67;;;14.60;41.80;;;;;;4993450;28;20528;-72
2022/02/26 08:01:25;;;;;;;14.77;3.88;;;13.80;42.50;;;;;;4975963;28;20034;-72
2022/02/26 08:03:51;;;;;;;11.60;3.85;;;12.90;44.20;;;;;;4992519;28;20049;-71
2022/02/26 08:06:35;;;;;;;11.20;4.13;;;12.50;45.10;;;;;;4975899;28;20385;-74
2022/02/26 08:09:01;;;;;;;6.47;3.13;;;12.00;45.70;;;;;;4975531;28;20137;-70
2022/02/26 08:11:30;;;;;;;8.20;3.22;;;11.60;46.80;;;;;;4993148;28;20537;-73
2022/02/26 08:13:57;;;;;;;12.15;4.10;;;11.30;47.50;;;;;;4975384;28;20446;-70
2022/02/26 08:16:24;;;;;;;8.90;3.60;;;11.00;48.20;;;;;;4975515;28;20027;-69
2022/02/26 08:18:50;;;;;;;7.25;3.50;;;10.60;49.00;;;;;;4974215;28;20030;-71
2022/02/26 08:21:16;;;;;;;8.93;3.40;;;10.40;49.80;;;;;;4992018;28;20057;-70
2022/02/26 08:23:43;;;;;;;10.50;4.20;;;10.00;50.50;;;;;;4992793;28;20097;-71
2022/02/26 08:26:08;;;;;;;10.23;3.75;;;9.80;51.20;;;;;;4989774;28;20103;-75
2022/02/26 08:28:34;;;;;;;6.47;3.60;;;9.70;51.60;;;;;;4991507;28;20030;-74
2022/02/26 08:31:00;;;;;;;9.85;3.33;;;9.60;51.90;;;;;;4973652;28;20038;-73
2022/02/26 08:33:25;;;;;;;6.55;3.30;;;9.60;52.20;;;;;;4991800;28;20150;-73
2022/02/26 08:35:51;;;;;;;6.85;3.33;;;9.60;52.40;;;;;;4973912;28;20498;-70
2022/02/26 08:38:18;;;;;;;9.32;3.83;;;9.60;52.40;;;;;;4991309;28;20100;-72
2022/02/26 08:40:44;;;;;;;11.70;3.60;;;9.60;52.50;;;;;;4990383;28;20038;-71
2022/02/26 08:43:09;;;;;;;12.50;3.70;;;9.60;52.60;;;;;;4992827;28;20034;-69
2022/02/26 08:45:36;;;;;;;10.93;3.67;;;9.60;52.50;;;;;;4992127;28;20027;-68
2022/02/26 08:48:01;;;;;;;8.60;3.33;;;9.70;52.60;;;;;;4992727;28;20030;-70
2022/02/26 08:50:27;;;;;;;11.15;3.50;;;9.90;52.30;;;;;;4992087;28;20038;-71
2022/02/26 08:52:53;;;;;;;10.30;3.60;;;10.10;51.90;;;;;;4974235;28;20065;-72
2022/02/26 08:55:19;;;;;;;11.88;3.72;;;10.20;51.50;;;;;;4974837;28;20037;-70
2022/02/26 08:57:45;;;;;;;8.55;3.17;;;10.20;51.10;;;;;;4991027;28;20027;-74
2022/02/26 09:00:11;;;;;;;21.35;4.75;;;10.20;50.90;;;;;;4992738;28;20094;-74
2022/02/26 09:02:37;;;;;;;12.13;3.45;;;10.10;51.10;;;;;;4974041;28;20121;-76
2022/02/26 09:05:03;;;;;;;18.48;5.38;;;10.10;51.20;;;;;;4974403;28;20082;-71
2022/02/26 09:07:29;;;;;;;22.40;4.50;;;9.90;51.60;;;;;;4992357;28;20358;-77
2022/02/26 09:09:55;;;;;;;14.20;4.03;;;9.90;51.60;;;;;;4991158;28;20033;-72
2022/02/26 09:12:21;;;;;;;10.18;3.08;;;10.00;51.60;;;;;;4974175;28;20031;-73
2022/02/26 09:14:46;;;;;;;11.15;3.30;;;10.10;51.10;;;;;;4974246;28;20030;-72
2022/02/26 09:17:12;;;;;;;12.20;3.30;;;10.20;51.00;;;;;;4992117;28;20023;-73
2022/02/26 09:19:38;;;;;;;7.70;2.78;;;10.20;50.90;;;;;;4973869;28;20038;-72
2022/02/26 09:22:04;;;;;;;9.82;2.90;;;10.40;50.60;;;;;;4992005;28;20023;-71
2022/02/26 09:24:32;;;;;;;10.75;3.17;;;10.60;50.20;;;;;;4991928;28;20031;-74
2022/02/26 09:26:58;;;;;;;9.43;3.47;;;10.70;49.90;;;;;;4974087;28;20466;-73
2022/02/26 09:29:23;;;;;;;10.40;3.90;;;10.80;49.00;;;;;;4993711;28;20030;-72
2022/02/26 09:31:51;;;;;;;12.50;3.10;;;10.70;49.00;;;;;;4995298;28;20062;-73
2022/02/26 09:34:21;;;;;;;11.02;3.20;;;10.70;48.90;;;;;;4978062;28;20049;-71
2022/02/26 09:36:47;;;;;;;8.90;2.85;;;10.80;47.90;;;;;;4994932;28;20081;-72
2022/02/26 09:39:17;;;;;;;13.25;3.17;;;10.80;47.60;;;;;;4995549;28;20532;-73
2022/02/26 09:41:43;;;;;;;13.70;2.92;;;10.70;47.00;;;;;;4993905;28;20027;-73
2022/02/26 09:44:09;;;;;;;19.52;3.70;;;10.70;47.20;;;;;;4977578;28;20034;-72
2022/02/26 09:46:36;;;;;;;16.23;3.50;;;10.60;47.50;;;;;;4977007;28;20442;-71
2022/02/26 09:49:02;;;;;;;14.93;3.08;;;10.70;47.50;;;;;;4995353;28;20026;-72
2022/02/26 09:51:29;;;;;;;13.82;3.72;;;10.90;46.70;;;;;;4995470;28;20105;-72
2022/02/26 09:53:55;;;;;;;20.38;6.90;;;10.70;46.90;;;;;;4994873;28;20037;-72
2022/02/26 09:56:24;;;;;;;10.68;3.20;;;10.90;47.10;;;;;;4978204;28;20049;-73
2022/02/26 09:58:51;;;;;;;20.33;3.30;;;11.00;46.70;;;;;;4977490;28;20031;-72
2022/02/26 10:01:37;;;;;;;12.60;3.35;;;11.10;46.50;;;;;;4978155;28;20026;-73
2022/02/26 10:04:10;;;;;;;24.25;3.97;;;11.30;46.00;;;;;;4995456;28;20424;-73
2022/02/26 10:06:37;;;;;;;18.08;3.60;;;11.50;45.40;;;;;;4994233;28;20030;-71
2022/02/26 10:09:13;;;;;;;17.98;4.07;;;11.60;44.80;;;;;;4993200;28;20077;-73
2022/02/26 10:11:40;;;;;;;11.13;3.33;;;11.60;44.30;;;;;;4977478;28;20428;-73
2022/02/26 10:14:16;;;;;;;15.40;3.83;;;11.50;44.10;;;;;;4977505;28;20041;-70
2022/02/26 10:16:41;;;;;;;14.57;3.10;;;11.60;43.80;;;;;;4976015;28;20553;-71
2022/02/26 10:19:07;;;;;;;20.90;5.65;;;11.70;43.90;;;;;;4977911;28;20117;-72
2022/02/26 10:21:34;;;;;;;20.40;4.20;;;11.90;43.40;;;;;;4977132;28;20478;-70
2022/02/26 10:23:59;;;;;;;11.77;3.50;;;11.90;42.90;;;;;;4975535;28;20191;-70
2022/02/26 10:26:27;;;;;;;11.32;3.55;;;12.20;43.10;;;;;;4993798;28;20430;-71
2022/02/26 10:29:07;;;;;;;16.15;3.83;;;12.40;41.90;;;;;;4993144;28;20022;-70
2022/02/26 10:31:50;;;;;;;12.85;3.40;;;12.40;41.20;;;;;;4977060;28;20049;-69
2022/02/26 10:34:36;;;;;;;14.30;3.30;;;12.50;40.90;;;;;;4994281;28;20082;-69
2022/02/26 10:37:19;;;;;;;12.57;3.70;;;12.30;40.20;;;;;;4993483;28;20034;-71
2022/02/26 10:40:11;;;;;;;11.25;3.35;;;12.40;40.50;;;;;;4975155;28;20034;-70
2022/02/26 10:42:37;;;;;;;12.13;3.28;;;12.50;40.40;;;;;;4973802;28;20034;-70
2022/02/26 10:45:08;;;;;;;15.68;3.75;;;12.60;40.60;;;;;;4976446;28;20038;-69
2022/02/26 10:47:36;;;;;;;14.10;4.40;;;12.60;40.60;;;;;;4976895;28;20053;-69
2022/02/26 10:50:19;;;;;;;34.30;12.20;;;12.60;40.70;;;;;;4994028;28;20033;-71
2022/02/26 10:52:59;;;;;;;11.68;3.25;;;12.60;40.80;;;;;;4993600;28;20030;-70
2022/02/26 10:55:52;;;;;;;10.45;3.20;;;12.60;39.90;;;;;;4994061;28;20037;-70
2022/02/26 10:58:23;;;;;;;11.63;3.42;;;12.60;39.40;;;;;;4976870;28;20080;-71
2022/02/26 11:00:52;;;;;;;15.27;4.43;;;12.60;39.50;;;;;;4993760;28;20033;-69
2022/02/26 11:03:18;;;;;;;12.65;3.33;;;12.70;39.30;;;;;;4993954;28;20106;-72
2022/02/26 11:05:44;;;;;;;10.27;3.28;;;12.70;39.00;;;;;;4993549;28;20036;-70
2022/02/26 11:08:12;;;;;;;13.30;3.33;;;12.80;38.20;;;;;;4994075;28;20115;-76
2022/02/26 11:10:40;;;;;;;13.68;3.80;;;12.80;38.40;;;;;;4976809;28;20041;-75
2022/02/26 11:13:06;;;;;;;23.02;7.68;;;12.70;38.20;;;;;;4994440;28;20030;-75
2022/02/26 11:15:32;;;;;;;13.07;4.07;;;12.50;38.70;;;;;;4976562;28;20053;-74
2022/02/26 11:18:00;;;;;;;14.23;4.88;;;12.60;38.60;;;;;;4976045;28;20064;-74
2022/02/26 11:20:28;;;;;;;11.00;2.92;;;12.60;38.60;;;;;;4975802;28;20026;-74
2022/02/26 11:22:57;;;;;;;15.80;5.03;;;12.60;38.70;;;;;;4975793;28;20026;-74
2022/02/26 11:25:24;;;;;;;12.10;4.70;;;12.80;38.40;;;;;;4976417;28;20125;-76
2022/02/26 11:27:50;;;;;;;9.88;3.40;;;12.80;38.40;;;;;;4975706;28;20026;-76
2022/02/26 11:30:19;;;;;;;10.23;3.20;;;12.80;38.10;;;;;;4994106;28;20076;-80
2022/02/26 11:32:47;;;;;;;10.13;3.58;;;12.70;38.30;;;;;;4993004;28;20050;-75
2022/02/26 11:35:19;;;;;;;12.27;3.10;;;12.70;38.60;;;;;;4993273;28;20034;-76
2022/02/26 11:37:48;;;;;;;11.68;3.75;;;12.60;38.70;;;;;;4975433;28;20027;-75
2022/02/26 11:40:15;;;;;;;11.50;3.70;;;12.60;38.80;;;;;;4993165;28;20030;-76
2022/02/26 11:42:43;;;;;;;10.07;3.67;;;12.70;39.10;;;;;;4975926;28;20033;-72
2022/02/26 11:45:11;;;;;;;11.27;3.85;;;12.60;39.10;;;;;;4993482;28;20103;-73
2022/02/26 11:48:14;;;;;;;12.13;4.38;;;12.60;38.90;;;;;;4993240;28;20026;-75
2022/02/26 11:50:43;;;;;;;13.65;3.67;;;12.60;39.30;;;;;;4933008;29;20083;-69
2022/02/26 11:53:17;;;;;;;24.48;8.68;;;12.40;39.30;;;;;;4932548;29;20116;-67
2022/02/26 11:55:54;;;;;;;20.02;4.80;;;12.20;38.60;;;;;;4916780;29;20151;-71
2022/02/26 11:58:34;;;;;;;13.40;3.72;;;12.10;38.60;;;;;;4932801;29;20170;-64
2022/02/26 12:01:06;;;;;;;10.93;3.55;;;12.10;38.60;;;;;;4932067;29;20130;-66
2022/02/26 12:03:44;;;;;;;10.70;2.88;;;12.00;38.60;;;;;;4932577;29;20091;-64
2022/02/26 12:06:09;;;;;;;7.90;2.85;;;12.00;38.30;;;;;;4932395;29;20059;-66
2022/02/26 12:08:48;;;;;;;8.32;3.30;;;11.90;38.60;;;;;;4932597;29;20482;-70
2022/02/26 12:11:25;;;;;;;13.25;4.03;;;12.00;38.60;;;;;;4932140;29;20138;-66
2022/02/26 12:13:54;;;;;;;16.08;5.10;;;12.00;38.70;;;;;;4931236;29;20043;-64
2022/02/26 12:16:20;;;;;;;16.73;5.63;;;12.10;38.60;;;;;;4916544;29;20462;-65
2022/02/26 12:19:20;;;;;;;12.73;3.67;;;12.10;38.40;;;;;;4931452;29;20032;-65
2022/02/26 12:21:49;;;;;;;13.88;3.40;;;12.20;37.60;;;;;;4931339;29;20082;-68
2022/02/26 12:24:17;;;;;;;10.82;3.20;;;12.20;38.10;;;;;;4916234;29;20028;-68
2022/02/26 12:27:04;;;;;;;10.82;3.30;;;12.30;37.90;;;;;;4957262;28;20069;-67
2022/02/26 12:29:39;;;;;;;12.13;3.55;;;12.20;37.60;;;;;;4974757;28;20045;-68
2022/02/26 12:32:12;;;;;;;14.88;3.92;;;12.10;37.60;;;;;;4991467;28;20112;-67
2022/02/26 12:34:50;;;;;;;12.52;3.42;;;12.00;37.00;;;;;;4974978;28;20031;-67
2022/02/26 12:37:21;;;;;;;6.80;3.00;;;11.80;36.90;;;;;;4975044;28;20122;-67
2022/02/26 12:39:52;;;;;;;11.32;3.55;;;11.90;37.10;;;;;;4992039;28;20030;-65
2022/02/26 12:42:24;;;;;;;12.27;4.30;;;12.00;37.00;;;;;;4992247;28;20026;-67
2022/02/26 12:44:53;;;;;;;12.48;4.97;;;12.10;36.60;;;;;;4974082;28;20030;-69
2022/02/26 12:47:20;;;;;;;12.55;3.53;;;12.00;36.40;;;;;;4992462;28;20077;-66
2022/02/26 12:49:46;;;;;;;13.35;3.47;;;12.10;36.90;;;;;;4974813;28;20477;-68